sensor_id;sensor_type;location;lat;lon;timestamp;P1;durP1;ratioP1;P2;durP2;ratioP2
38358;SDS011;42072;48.044;14.416;2024-03-23T16:39:17;2.97;;;1.65;;
38358;SDS011;42072;48.044;14.416;2024-03-23T16:55:13;1.88;;;1.02;;
38358;SDS011;42072;48.044;14.416;2024-03-23T16:57:39;1.40;;;1.10;;
38358;SDS011;42072;48.044;14.416;2024-03-23T17:00:24;3.35;;;1.10;;
38358;SDS011;42072;48.044;14.416;2024-03-23T17:03:09;1.75;;;1.00;;
38358;SDS011;42072;48.044;14.416;2024-03-23T17:05:38;1.42;;;1.13;;
38358;SDS011;42072;48.044;14.416;2024-03-23T17:08:04;1.92;;;1.42;;
38358;SDS011;42072;48.044;14.416;2024-03-23T17:10:32;1.50;;;0.93;;
38358;SDS011;42072;48.044;14.416;2024-03-23T17:12:58;2.97;;;1.33;;
38358;SDS011;42072;48.044;14.416;2024-03-23T17:15:44;3.63;;;1.50;;
38358;SDS011;42072;48.044;14.416;2024-03-23T17:18:29;3.28;;;1.58;;
38358;SDS011;42072;48.044;14.416;2024-03-23T17:26:09;4.15;;;2.10;;
38358;SDS011;42072;48.044;14.416;2024-03-23T17:28:36;1.52;;;1.10;;
38358;SDS011;42072;48.044;14.416;2024-03-23T17:31:03;2.83;;;1.13;;
38358;SDS011;42072;48.044;14.416;2024-03-23T17:36:18;3.05;;;1.40;;
38358;SDS011;42072;48.044;14.416;2024-03-23T17:38:55;1.90;;;1.30;;
38358;SDS011;42072;48.044;14.416;2024-03-23T17:41:22;1.92;;;1.52;;
38358;SDS011;42072;48.044;14.416;2024-03-23T17:43:52;3.30;;;2.10;;
38358;SDS011;42072;48.044;14.416;2024-03-23T17:46:18;3.25;;;2.45;;
38358;SDS011;42072;48.044;14.416;2024-03-23T17:48:44;3.97;;;2.30;;
38358;SDS011;42072;48.044;14.416;2024-03-23T17:51:11;4.97;;;2.97;;
38358;SDS011;42072;48.044;14.416;2024-03-23T17:53:38;3.00;;;1.92;;
38358;SDS011;42072;48.044;14.416;2024-03-23T17:58:50;2.85;;;1.63;;
38358;SDS011;42072;48.044;14.416;2024-03-23T18:01:16;3.17;;;1.77;;
38358;SDS011;42072;48.044;14.416;2024-03-23T18:03:50;5.22;;;1.80;;
38358;SDS011;42072;48.044;14.416;2024-03-23T18:06:21;3.38;;;2.13;;
38358;SDS011;42072;48.044;14.416;2024-03-23T18:08:47;3.17;;;1.70;;
38358;SDS011;42072;48.044;14.416;2024-03-23T18:11:14;2.33;;;1.40;;
38358;SDS011;42072;48.044;14.416;2024-03-23T18:13:40;2.47;;;1.92;;
38358;SDS011;42072;48.044;14.416;2024-03-23T18:16:25;6.60;;;2.92;;
38358;SDS011;42072;48.044;14.416;2024-03-23T18:18:51;3.08;;;1.88;;
38358;SDS011;42072;48.044;14.416;2024-03-23T18:21:18;6.32;;;3.20;;
38358;SDS011;42072;48.044;14.416;2024-03-23T18:23:46;5.18;;;2.38;;
38358;SDS011;42072;48.044;14.416;2024-03-23T18:26:12;2.97;;;1.73;;
38358;SDS011;42072;48.044;14.416;2024-03-23T18:28:38;4.20;;;1.80;;
38358;SDS011;42072;48.044;14.416;2024-03-23T18:31:05;4.28;;;2.50;;
38358;SDS011;42072;48.044;14.416;2024-03-23T18:33:32;5.95;;;3.33;;
38358;SDS011;42072;48.044;14.416;2024-03-23T18:36:02;5.43;;;3.00;;
38358;SDS011;42072;48.044;14.416;2024-03-23T18:38:28;6.53;;;3.65;;
38358;SDS011;42072;48.044;14.416;2024-03-23T18:40:55;4.10;;;2.55;;
38358;SDS011;42072;48.044;14.416;2024-03-23T18:43:39;6.88;;;2.38;;
38358;SDS011;42072;48.044;14.416;2024-03-23T18:46:24;3.38;;;1.80;;
38358;SDS011;42072;48.044;14.416;2024-03-23T18:48:51;2.78;;;1.75;;
38358;SDS011;42072;48.044;14.416;2024-03-23T18:51:17;2.53;;;1.65;;
38358;SDS011;42072;48.044;14.416;2024-03-23T19:01:23;5.75;;;2.92;;
38358;SDS011;42072;48.044;14.416;2024-03-23T19:03:49;3.97;;;2.30;;
38358;SDS011;42072;48.044;14.416;2024-03-23T19:06:15;3.38;;;2.50;;
38358;SDS011;42072;48.044;14.416;2024-03-23T19:08:42;3.90;;;2.78;;
38358;SDS011;42072;48.044;14.416;2024-03-23T19:11:08;4.88;;;2.40;;
38358;SDS011;42072;48.044;14.416;2024-03-23T19:13:34;3.67;;;2.53;;
38358;SDS011;42072;48.044;14.416;2024-03-23T19:16:19;3.55;;;2.28;;
38358;SDS011;42072;48.044;14.416;2024-03-23T19:19:04;2.67;;;1.92;;
38358;SDS011;42072;48.044;14.416;2024-03-23T19:21:30;5.13;;;2.17;;
38358;SDS011;42072;48.044;14.416;2024-03-23T19:23:56;7.43;;;3.65;;
38358;SDS011;42072;48.044;14.416;2024-03-23T19:26:24;5.72;;;3.13;;
38358;SDS011;42072;48.044;14.416;2024-03-23T19:28:50;7.65;;;4.18;;
38358;SDS011;42072;48.044;14.416;2024-03-23T19:31:17;11.55;;;5.07;;
38358;SDS011;42072;48.044;14.416;2024-03-23T19:33:43;7.88;;;3.60;;
38358;SDS011;42072;48.044;14.416;2024-03-23T19:36:10;10.38;;;4.68;;
38358;SDS011;42072;48.044;14.416;2024-03-23T19:38:37;11.25;;;6.30;;
38358;SDS011;42072;48.044;14.416;2024-03-23T19:41:22;9.77;;;4.93;;
38358;SDS011;42072;48.044;14.416;2024-03-23T19:43:50;8.43;;;4.63;;
38358;SDS011;42072;48.044;14.416;2024-03-23T19:46:16;10.27;;;4.90;;
38358;SDS011;42072;48.044;14.416;2024-03-23T19:48:43;9.30;;;5.25;;
38358;SDS011;42072;48.044;14.416;2024-03-23T19:51:09;9.00;;;4.03;;
38358;SDS011;42072;48.044;14.416;2024-03-23T19:56:20;7.15;;;4.07;;
38358;SDS011;42072;48.044;14.416;2024-03-23T19:58:46;2.50;;;1.83;;
38358;SDS011;42072;48.044;14.416;2024-03-23T20:01:13;5.13;;;1.90;;
38358;SDS011;42072;48.044;14.416;2024-03-23T20:03:41;4.18;;;1.80;;
38358;SDS011;42072;48.044;14.416;2024-03-23T20:06:16;4.32;;;2.10;;
38358;SDS011;42072;48.044;14.416;2024-03-23T20:08:51;5.32;;;2.17;;
38358;SDS011;42072;48.044;14.416;2024-03-23T20:11:18;2.47;;;1.40;;
38358;SDS011;42072;48.044;14.416;2024-03-23T20:14:10;9.00;;;3.75;;
38358;SDS011;42072;48.044;14.416;2024-03-23T20:16:36;3.10;;;1.98;;
38358;SDS011;42072;48.044;14.416;2024-03-23T20:19:03;3.72;;;2.38;;
38358;SDS011;42072;48.044;14.416;2024-03-23T20:21:32;2.17;;;1.20;;
38358;SDS011;42072;48.044;14.416;2024-03-23T20:23:59;3.10;;;1.65;;
38358;SDS011;42072;48.044;14.416;2024-03-23T20:26:25;2.25;;;1.25;;
38358;SDS011;42072;48.044;14.416;2024-03-23T20:28:52;2.13;;;1.13;;
38358;SDS011;42072;48.044;14.416;2024-03-23T20:31:18;2.03;;;1.15;;
38358;SDS011;42072;48.044;14.416;2024-03-23T20:33:44;3.60;;;1.40;;
38358;SDS011;42072;48.044;14.416;2024-03-23T20:36:13;0.82;;;0.80;;
38358;SDS011;42072;48.044;14.416;2024-03-23T20:38:39;2.13;;;1.30;;
38358;SDS011;42072;48.044;14.416;2024-03-23T20:41:05;2.45;;;1.13;;
38358;SDS011;42072;48.044;14.416;2024-03-23T20:43:32;3.00;;;1.08;;
38358;SDS011;42072;48.044;14.416;2024-03-23T20:46:00;1.20;;;1.00;;
38358;SDS011;42072;48.044;14.416;2024-03-23T20:48:28;2.28;;;1.40;;
38358;SDS011;42072;48.044;14.416;2024-03-23T20:51:00;1.98;;;1.00;;
38358;SDS011;42072;48.044;14.416;2024-03-23T20:53:28;1.98;;;1.20;;
38358;SDS011;42072;48.044;14.416;2024-03-23T20:55:59;2.05;;;1.02;;
38358;SDS011;42072;48.044;14.416;2024-03-23T20:58:26;2.45;;;1.27;;
38358;SDS011;42072;48.044;14.416;2024-03-23T21:00:57;2.17;;;1.40;;
38358;SDS011;42072;48.044;14.416;2024-03-23T21:03:28;1.40;;;1.20;;
38358;SDS011;42072;48.044;14.416;2024-03-23T21:05:55;3.25;;;1.70;;
38358;SDS011;42072;48.044;14.416;2024-03-23T21:08:22;2.13;;;1.38;;
38358;SDS011;42072;48.044;14.416;2024-03-23T21:10:49;1.83;;;1.00;;
38358;SDS011;42072;48.044;14.416;2024-03-23T21:13:35;3.42;;;1.20;;
38358;SDS011;42072;48.044;14.416;2024-03-23T21:16:01;1.35;;;1.20;;
38358;SDS011;42072;48.044;14.416;2024-03-23T21:18:28;1.25;;;1.15;;
38358;SDS011;42072;48.044;14.416;2024-03-23T21:20:58;1.58;;;1.02;;
38358;SDS011;42072;48.044;14.416;2024-03-23T21:23:29;1.88;;;1.00;;
38358;SDS011;42072;48.044;14.416;2024-03-23T21:26:04;2.55;;;1.30;;
38358;SDS011;42072;48.044;14.416;2024-03-23T21:28:31;2.50;;;1.10;;
38358;SDS011;42072;48.044;14.416;2024-03-23T21:30:57;3.03;;;1.00;;
38358;SDS011;42072;48.044;14.416;2024-03-23T21:33:23;2.20;;;1.00;;
38358;SDS011;42072;48.044;14.416;2024-03-23T21:35:57;3.13;;;1.38;;
38358;SDS011;42072;48.044;14.416;2024-03-23T21:40:54;1.80;;;1.10;;
38358;SDS011;42072;48.044;14.416;2024-03-23T21:43:21;3.65;;;1.23;;
38358;SDS011;42072;48.044;14.416;2024-03-23T21:46:01;2.13;;;1.15;;
38358;SDS011;42072;48.044;14.416;2024-03-23T21:48:29;2.47;;;1.08;;
38358;SDS011;42072;48.044;14.416;2024-03-23T21:51:03;3.63;;;1.10;;
38358;SDS011;42072;48.044;14.416;2024-03-23T21:53:30;4.15;;;1.80;;
38358;SDS011;42072;48.044;14.416;2024-03-23T22:01:09;2.67;;;1.60;;
38358;SDS011;42072;48.044;14.416;2024-03-23T22:03:35;3.03;;;1.40;;
38358;SDS011;42072;48.044;14.416;2024-03-23T22:06:01;2.15;;;1.33;;
38358;SDS011;42072;48.044;14.416;2024-03-23T22:08:28;2.47;;;1.33;;
38358;SDS011;42072;48.044;14.416;2024-03-23T22:10:57;3.50;;;1.75;;
38358;SDS011;42072;48.044;14.416;2024-03-23T22:13:23;2.58;;;1.38;;
38358;SDS011;42072;48.044;14.416;2024-03-23T22:16:08;2.13;;;1.60;;
38358;SDS011;42072;48.044;14.416;2024-03-23T22:18:34;2.97;;;1.20;;
38358;SDS011;42072;48.044;14.416;2024-03-23T22:21:01;2.70;;;1.27;;
38358;SDS011;42072;48.044;14.416;2024-03-23T22:23:28;1.42;;;1.17;;
38358;SDS011;42072;48.044;14.416;2024-03-23T22:25:55;1.83;;;0.88;;
38358;SDS011;42072;48.044;14.416;2024-03-23T22:28:22;2.10;;;1.05;;
38358;SDS011;42072;48.044;14.416;2024-03-23T22:31:06;1.27;;;1.10;;
38358;SDS011;42072;48.044;14.416;2024-03-23T22:33:51;1.45;;;1.10;;
38358;SDS011;42072;48.044;14.416;2024-03-23T22:36:17;1.67;;;1.05;;
38358;SDS011;42072;48.044;14.416;2024-03-23T22:38:43;1.13;;;0.93;;
38358;SDS011;42072;48.044;14.416;2024-03-23T22:41:10;1.52;;;1.08;;
38358;SDS011;42072;48.044;14.416;2024-03-23T22:43:37;1.85;;;1.00;;
38358;SDS011;42072;48.044;14.416;2024-03-23T22:46:04;2.05;;;0.90;;
38358;SDS011;42072;48.044;14.416;2024-03-23T22:48:32;2.95;;;1.10;;
38358;SDS011;42072;48.044;14.416;2024-03-23T22:51:01;1.52;;;1.00;;
38358;SDS011;42072;48.044;14.416;2024-03-23T22:53:29;1.13;;;0.90;;
38358;SDS011;42072;48.044;14.416;2024-03-23T22:55:56;3.20;;;1.40;;
38358;SDS011;42072;48.044;14.416;2024-03-23T22:58:23;2.65;;;1.30;;
38358;SDS011;42072;48.044;14.416;2024-03-23T23:03:34;2.58;;;1.27;;
38358;SDS011;42072;48.044;14.416;2024-03-23T23:06:03;2.15;;;1.30;;
38358;SDS011;42072;48.044;14.416;2024-03-23T23:08:30;3.35;;;1.40;;
38358;SDS011;42072;48.044;14.416;2024-03-23T23:10:57;5.63;;;2.92;;
38358;SDS011;42072;48.044;14.416;2024-03-23T23:13:24;5.40;;;2.65;;
38358;SDS011;42072;48.044;14.416;2024-03-23T23:15:52;5.22;;;2.55;;
38358;SDS011;42072;48.044;14.416;2024-03-23T23:18:21;6.43;;;2.83;;
38358;SDS011;42072;48.044;14.416;2024-03-23T23:20:50;6.82;;;3.10;;
38358;SDS011;42072;48.044;14.416;2024-03-23T23:25:44;3.72;;;1.73;;
38358;SDS011;42072;48.044;14.416;2024-03-23T23:28:10;6.50;;;2.28;;
38358;SDS011;42072;48.044;14.416;2024-03-23T23:30:36;3.28;;;1.55;;
38358;SDS011;42072;48.044;14.416;2024-03-23T23:33:21;2.10;;;0.85;;
38358;SDS011;42072;48.044;14.416;2024-03-23T23:36:05;8.52;;;2.63;;
38358;SDS011;42072;48.044;14.416;2024-03-23T23:38:31;10.68;;;4.40;;
38358;SDS011;42072;48.044;14.416;2024-03-23T23:40:57;39.45;;;12.77;;
38358;SDS011;42072;48.044;14.416;2024-03-23T23:43:23;16.48;;;6.35;;
38358;SDS011;42072;48.044;14.416;2024-03-23T23:45:50;5.30;;;1.90;;
38358;SDS011;42072;48.044;14.416;2024-03-23T23:48:16;5.82;;;2.72;;
38358;SDS011;42072;48.044;14.416;2024-03-23T23:50:42;7.25;;;3.22;;
38358;SDS011;42072;48.044;14.416;2024-03-23T23:53:08;5.30;;;3.13;;
38358;SDS011;42072;48.044;14.416;2024-03-23T23:55:34;4.93;;;1.45;;
38358;SDS011;42072;48.044;14.416;2024-03-23T23:58:00;2.08;;;1.10;;
